createdAt,value
2022-10-12T00:00:49.892Z,10.57
2022-10-12T00:03:18.090Z,11.60
2022-10-12T00:05:47.727Z,13.37
2022-10-12T00:08:15.803Z,13.53
2022-10-12T00:10:44.030Z,12.93
2022-10-12T00:13:12.289Z,12.30
2022-10-12T00:15:40.498Z,11.57
2022-10-12T00:18:08.793Z,10.43
2022-10-12T00:20:36.878Z,12.70
2022-10-12T00:23:06.369Z,11.60
2022-10-12T00:25:39.031Z,11.23
2022-10-12T00:28:07.157Z,12.10
2022-10-12T00:30:35.669Z,12.10
2022-10-12T00:33:04.148Z,10.40
2022-10-12T00:35:32.235Z,12.10
2022-10-12T00:38:00.584Z,11.50
2022-10-12T00:40:30.046Z,11.00
2022-10-12T00:42:58.555Z,11.27
2022-10-12T00:45:26.719Z,11.67
2022-10-12T00:47:57.197Z,11.00
2022-10-12T00:50:27.422Z,10.60
2022-10-12T00:52:58.874Z,11.20
2022-10-12T00:55:29.505Z,12.83
2022-10-12T00:57:57.668Z,13.43
2022-10-12T01:00:25.754Z,20.80
2022-10-12T01:02:54.523Z,17.10
2022-10-12T01:05:22.844Z,16.23
2022-10-12T01:07:51.179Z,16.27
2022-10-12T01:10:19.488Z,15.23
2022-10-12T01:12:49.331Z,12.27
2022-10-12T01:15:18.428Z,12.40
2022-10-12T01:17:53.625Z,10.00
2022-10-12T01:20:37.977Z,9.50
2022-10-12T01:23:43.150Z,8.83
2022-10-12T01:26:30.075Z,9.20
2022-10-12T01:29:07.845Z,9.17
2022-10-12T01:31:39.710Z,7.53
2022-10-12T01:34:10.565Z,6.73
2022-10-12T01:36:41.324Z,6.60
2022-10-12T01:39:13.372Z,6.27
2022-10-12T01:41:44.440Z,6.20
2022-10-12T01:44:12.502Z,6.70
2022-10-12T01:46:44.466Z,6.63
2022-10-12T01:49:12.603Z,6.90
2022-10-12T01:51:52.519Z,6.27
2022-10-12T01:54:27.296Z,5.40
2022-10-12T01:56:57.919Z,5.73
2022-10-12T01:59:33.254Z,6.13
2022-10-12T02:02:07.382Z,5.60
2022-10-12T02:04:38.101Z,5.10
2022-10-12T02:07:14.667Z,5.13
2022-10-12T02:09:42.755Z,7.13
2022-10-12T02:12:14.014Z,5.47
2022-10-12T02:14:44.620Z,6.23
2022-10-12T02:17:15.774Z,6.80
2022-10-12T02:19:46.571Z,12.37
2022-10-12T02:22:15.091Z,9.57
2022-10-12T02:24:45.513Z,8.73
2022-10-12T02:27:13.673Z,8.63
2022-10-12T02:29:43.044Z,8.60
2022-10-12T02:32:16.949Z,10.87
2022-10-12T02:34:46.115Z,14.33
2022-10-12T02:37:21.481Z,14.30
2022-10-12T02:39:54.297Z,16.53
2022-10-12T02:42:26.092Z,17.77
2022-10-12T02:44:54.436Z,15.53
2022-10-12T02:47:24.347Z,17.13
2022-10-12T02:49:52.488Z,15.13
2022-10-12T02:52:20.640Z,12.80
2022-10-12T02:54:48.748Z,10.83
2022-10-12T02:57:16.834Z,7.70
2022-10-12T02:59:44.961Z,7.07
2022-10-12T03:02:13.065Z,6.73
2022-10-12T03:04:42.917Z,6.00
2022-10-12T03:07:11.062Z,7.37
2022-10-12T03:09:39.547Z,6.17
2022-10-12T03:12:07.883Z,6.53
2022-10-12T03:14:37.526Z,6.20
2022-10-12T03:17:05.676Z,6.87
2022-10-12T03:19:33.823Z,6.27
2022-10-12T03:22:03.345Z,7.10
2022-10-12T03:24:31.548Z,6.27
2022-10-12T03:26:59.685Z,6.03
2022-10-12T03:29:27.799Z,8.63
2022-10-12T03:31:56.026Z,8.60
2022-10-12T03:34:24.177Z,7.33
2022-10-12T03:36:52.342Z,7.63
2022-10-12T03:39:21.797Z,8.57
2022-10-12T03:41:49.938Z,8.50
2022-10-12T03:44:18.084Z,8.10
2022-10-12T03:46:46.136Z,9.73
2022-10-12T03:49:14.315Z,10.47
2022-10-12T03:51:42.424Z,11.27
2022-10-12T03:54:10.476Z,9.57
2022-10-12T03:56:39.891Z,12.43
2022-10-12T03:59:08.227Z,15.30
2022-10-12T04:01:36.361Z,15.03
2022-10-12T04:04:04.576Z,15.47
2022-10-12T04:06:32.658Z,16.13
2022-10-12T04:09:00.707Z,12.97
2022-10-12T04:11:28.801Z,8.70
2022-10-12T04:13:58.220Z,7.30
2022-10-12T04:16:28.800Z,7.13
2022-10-12T04:18:59.146Z,7.60
2022-10-12T04:21:27.240Z,7.00
2022-10-12T04:23:55.411Z,6.73
2022-10-12T04:26:23.511Z,8.97
2022-10-12T04:28:51.694Z,7.80
2022-10-12T04:31:21.294Z,9.57
2022-10-12T04:33:49.410Z,8.80
2022-10-12T04:36:17.492Z,9.40
2022-10-12T04:38:45.556Z,8.00
2022-10-12T04:41:13.620Z,8.23
2022-10-12T04:43:41.682Z,8.93
2022-10-12T04:46:09.792Z,8.93
2022-10-12T04:48:39.313Z,7.60
2022-10-12T04:51:07.655Z,7.57
2022-10-12T04:53:35.789Z,7.60
2022-10-12T04:56:04.175Z,8.03
2022-10-12T04:58:32.461Z,8.47
2022-10-12T05:01:00.881Z,13.07
2022-10-12T05:03:29.028Z,17.23
2022-10-12T05:05:58.460Z,16.27
2022-10-12T05:08:26.656Z,17.03
2022-10-12T05:10:58.065Z,15.17
2022-10-12T05:13:26.448Z,12.87
2022-10-12T05:15:55.017Z,11.20
2022-10-12T05:18:23.126Z,11.03
2022-10-12T05:20:55.892Z,7.73
2022-10-12T05:23:26.383Z,7.60
2022-10-12T05:25:56.183Z,8.23
2022-10-12T05:28:24.382Z,9.87
2022-10-12T05:30:52.811Z,7.90
2022-10-12T05:33:20.936Z,8.40
2022-10-12T05:35:54.646Z,7.70
2022-10-12T05:38:25.737Z,8.60
2022-10-12T05:40:59.283Z,6.67
2022-10-12T05:43:28.457Z,5.93
2022-10-12T05:45:56.577Z,4.87
2022-10-12T05:48:24.737Z,4.80
2022-10-12T05:50:53.797Z,5.60
2022-10-12T05:53:21.993Z,7.20
2022-10-12T05:55:55.605Z,8.60
2022-10-12T05:58:25.001Z,8.33
2022-10-12T06:00:53.280Z,6.90
2022-10-12T06:03:25.699Z,7.70
2022-10-12T06:05:54.444Z,7.30
2022-10-12T06:08:22.510Z,7.37
2022-10-12T06:10:51.882Z,7.67
2022-10-12T06:13:21.383Z,7.53
2022-10-12T06:15:49.678Z,8.50
2022-10-12T06:18:18.042Z,8.80
2022-10-12T06:20:48.953Z,8.30
2022-10-12T06:23:17.031Z,8.80
2022-10-12T06:25:47.004Z,7.40
2022-10-12T06:28:15.210Z,8.80
2022-10-12T06:30:44.679Z,8.17
2022-10-12T06:33:12.793Z,8.60
2022-10-12T06:35:40.920Z,7.87
2022-10-12T06:38:08.991Z,15.33
2022-10-12T06:40:37.115Z,14.63
2022-10-12T06:43:05.243Z,11.33
2022-10-12T06:45:33.565Z,10.83
2022-10-12T06:48:03.030Z,9.00
2022-10-12T06:50:31.131Z,9.27
2022-10-12T06:52:59.355Z,7.47
2022-10-12T06:55:28.199Z,9.53
2022-10-12T06:57:56.649Z,8.73
2022-10-12T07:00:24.844Z,8.43
2022-10-12T07:02:53.135Z,8.37
2022-10-12T07:05:24.079Z,8.67
2022-10-12T07:07:52.190Z,8.30
2022-10-12T07:10:20.332Z,8.77
2022-10-12T07:12:48.442Z,8.50
2022-10-12T07:15:16.747Z,8.20
2022-10-12T07:17:44.843Z,10.43
2022-10-12T07:20:13.153Z,9.23
2022-10-12T07:22:42.933Z,7.70
2022-10-12T07:25:11.059Z,7.87
2022-10-12T07:27:39.660Z,5.87
2022-10-12T07:30:10.519Z,8.83
2022-10-12T07:32:38.578Z,6.70
2022-10-12T07:35:07.683Z,6.43
2022-10-12T07:37:35.828Z,7.50
2022-10-12T07:40:06.166Z,7.37
2022-10-12T07:42:34.316Z,7.83
2022-10-12T07:45:02.429Z,7.30
2022-10-12T07:47:30.460Z,7.20
2022-10-12T07:49:58.630Z,8.07
2022-10-12T07:52:27.508Z,6.73
2022-10-12T07:54:55.648Z,6.60
2022-10-12T07:57:25.164Z,7.77
2022-10-12T07:59:53.300Z,7.43
2022-10-12T08:02:21.735Z,7.87
2022-10-12T08:04:49.881Z,6.90
2022-10-12T08:07:18.039Z,4.80
2022-10-12T08:09:46.188Z,5.93
2022-10-12T08:12:14.308Z,4.97
2022-10-12T08:14:43.806Z,5.03
2022-10-12T08:17:11.940Z,4.70
2022-10-12T08:19:40.108Z,4.10
2022-10-12T08:22:08.221Z,4.07
2022-10-12T08:24:36.897Z,3.40
2022-10-12T08:27:05.161Z,4.13
2022-10-12T08:29:33.266Z,3.40
2022-10-12T08:32:02.754Z,4.00
2022-10-12T08:34:30.999Z,3.27
2022-10-12T08:36:59.601Z,3.43
2022-10-12T08:39:27.758Z,4.00
2022-10-12T08:42:05.418Z,4.07
2022-10-12T08:44:47.511Z,3.10
2022-10-12T08:47:19.284Z,3.30
2022-10-12T08:49:49.902Z,3.60
2022-10-12T08:52:28.735Z,3.10
2022-10-12T08:54:57.313Z,2.77
2022-10-12T08:57:25.420Z,2.67
2022-10-12T08:59:53.543Z,3.13
2022-10-12T09:02:54.759Z,3.43
2022-10-12T09:05:25.512Z,2.90
2022-10-12T09:07:57.107Z,3.10
2022-10-12T09:10:35.882Z,3.60
2022-10-12T09:13:09.663Z,3.53
2022-10-12T09:15:50.002Z,3.00
2022-10-12T09:18:22.050Z,2.87
2022-10-12T09:20:51.206Z,2.83
2022-10-12T09:23:26.252Z,2.43
2022-10-12T09:25:55.780Z,3.00
2022-10-12T09:28:28.114Z,3.53
2022-10-12T09:31:07.608Z,3.37
2022-10-12T09:33:41.356Z,2.60
2022-10-12T09:36:11.348Z,3.90
2022-10-12T09:38:39.757Z,3.10
2022-10-12T09:41:15.848Z,2.90
2022-10-12T09:43:43.964Z,2.13
2022-10-12T09:46:12.120Z,2.57
2022-10-12T09:48:56.904Z,2.23
2022-10-12T09:51:25.606Z,2.47
2022-10-12T09:53:57.482Z,3.17
2022-10-12T09:56:29.693Z,2.37
2022-10-12T09:58:59.992Z,1.93
2022-10-12T10:01:29.517Z,1.83
2022-10-12T10:04:15.446Z,1.53
2022-10-12T10:06:44.946Z,1.60
2022-10-12T10:09:29.730Z,1.90
2022-10-12T10:11:58.392Z,1.70
2022-10-12T10:14:26.511Z,2.00
2022-10-12T10:16:55.588Z,2.40
2022-10-12T10:19:26.442Z,2.20
2022-10-12T10:21:54.702Z,1.90
2022-10-12T10:24:27.831Z,1.37
2022-10-12T10:26:58.158Z,2.27
2022-10-12T10:29:36.310Z,1.60
2022-10-12T10:32:26.828Z,2.60
2022-10-12T10:35:07.296Z,2.73
2022-10-12T10:37:35.410Z,1.90
2022-10-12T10:40:04.060Z,2.10
2022-10-12T10:42:33.468Z,1.60
2022-10-12T10:45:02.791Z,1.80
2022-10-12T10:47:32.216Z,2.30
2022-10-12T10:50:01.279Z,2.23
2022-10-12T10:52:31.847Z,1.87
2022-10-12T10:55:20.834Z,2.30
2022-10-12T10:57:55.163Z,1.97
2022-10-12T11:00:38.514Z,1.97
2022-10-12T11:03:12.064Z,2.23
2022-10-12T11:05:41.995Z,1.67
2022-10-12T11:08:13.973Z,2.03
2022-10-12T11:10:45.388Z,1.70
2022-10-12T11:13:16.116Z,2.07
2022-10-12T11:15:46.760Z,2.20
2022-10-12T11:18:18.119Z,1.67
2022-10-12T11:20:53.697Z,2.17
2022-10-12T11:23:32.818Z,1.43
2022-10-12T11:26:11.033Z,2.20
2022-10-12T11:28:39.220Z,1.83
2022-10-12T11:31:08.262Z,2.17
2022-10-12T11:33:38.619Z,2.30
2022-10-12T11:36:09.384Z,1.60
2022-10-12T11:38:41.546Z,1.63
2022-10-12T11:41:34.982Z,1.90
2022-10-12T11:44:03.447Z,2.17
2022-10-12T11:46:34.618Z,1.50
2022-10-12T11:49:06.619Z,2.10
2022-10-12T11:51:34.731Z,2.10
2022-10-12T11:54:07.251Z,2.70
2022-10-12T11:56:38.504Z,3.47
2022-10-12T11:59:13.519Z,2.23
2022-10-12T12:01:48.412Z,3.00
2022-10-12T12:04:42.104Z,1.90
2022-10-12T12:07:43.676Z,1.77
2022-10-12T12:11:06.519Z,1.60
2022-10-12T12:13:34.653Z,1.90
2022-10-12T12:16:36.901Z,1.80
2022-10-12T12:19:43.287Z,1.70
2022-10-12T12:22:27.204Z,1.33
2022-10-12T12:25:05.593Z,1.77
2022-10-12T12:27:39.548Z,2.20
2022-10-12T12:30:25.496Z,2.30
2022-10-12T12:32:55.431Z,2.30
2022-10-12T12:35:27.699Z,1.93
2022-10-12T12:38:17.198Z,1.73
2022-10-12T12:40:57.836Z,1.57
2022-10-12T12:43:58.142Z,1.67
2022-10-12T12:46:43.323Z,1.60
2022-10-12T12:49:27.654Z,1.70
2022-10-12T12:51:57.921Z,1.97
2022-10-12T12:54:26.061Z,1.43
2022-10-12T12:57:19.041Z,1.63
2022-10-12T13:00:15.668Z,1.77
2022-10-12T13:03:25.076Z,1.67
2022-10-12T13:07:10.494Z,1.67
2022-10-12T13:09:50.200Z,1.87
2022-10-12T13:12:53.202Z,1.73
2022-10-12T13:15:29.932Z,1.20
2022-10-12T13:18:45.981Z,1.57
2022-10-12T13:21:17.552Z,1.33
2022-10-12T13:23:46.631Z,1.87
2022-10-12T13:26:18.566Z,1.23
2022-10-12T13:28:46.800Z,1.47
2022-10-12T13:31:19.806Z,1.60
2022-10-12T13:33:51.931Z,1.93
2022-10-12T13:36:22.519Z,1.50
2022-10-12T13:38:58.692Z,2.77
2022-10-12T13:41:27.374Z,0.90
2022-10-12T13:43:56.843Z,1.40
2022-10-12T13:46:41.928Z,1.97
2022-10-12T13:49:17.175Z,1.67
2022-10-12T13:51:46.578Z,1.20
2022-10-12T13:54:19.318Z,1.30
2022-10-12T13:56:47.830Z,1.60
2022-10-12T13:59:19.168Z,1.33
2022-10-12T14:02:00.748Z,1.73
2022-10-12T14:04:30.522Z,1.33
2022-10-12T14:07:02.104Z,1.70
2022-10-12T14:09:35.041Z,1.40
2022-10-12T14:12:03.210Z,1.80
2022-10-12T14:14:34.596Z,2.60
2022-10-12T14:17:04.114Z,1.60
2022-10-12T14:19:42.744Z,2.07
2022-10-12T14:22:10.950Z,1.33
2022-10-12T14:24:39.046Z,1.80
2022-10-12T14:27:08.264Z,2.00
2022-10-12T14:29:41.709Z,1.40
2022-10-12T14:32:42.178Z,1.13
2022-10-12T14:35:23.950Z,1.93
2022-10-12T14:37:53.166Z,1.20
2022-10-12T14:40:38.403Z,1.77
2022-10-12T14:43:10.015Z,1.53
2022-10-12T14:45:38.242Z,1.70
2022-10-12T14:48:10.547Z,1.47
2022-10-12T14:50:38.628Z,1.90
2022-10-12T14:53:10.794Z,1.80
2022-10-12T14:55:39.098Z,1.73
2022-10-12T14:58:08.197Z,1.80
2022-10-12T15:00:37.221Z,2.07
2022-10-12T15:03:06.956Z,1.60
2022-10-12T15:05:35.068Z,2.00
2022-10-12T15:08:07.363Z,1.70
2022-10-12T15:10:35.918Z,1.63
2022-10-12T15:13:04.101Z,1.50
2022-10-12T15:15:36.026Z,1.70
2022-10-12T15:18:04.056Z,1.50
2022-10-12T15:20:33.899Z,1.77
2022-10-12T15:23:02.833Z,2.50
2022-10-12T15:25:40.220Z,1.60
2022-10-12T15:28:08.331Z,2.20
2022-10-12T15:30:47.500Z,2.70
2022-10-12T15:33:20.551Z,4.20
2022-10-12T15:35:50.076Z,4.63
2022-10-12T15:38:18.203Z,5.67
2022-10-12T15:40:47.050Z,5.30
2022-10-12T15:45:48.175Z,5.33
2022-10-12T15:48:16.299Z,5.83
2022-10-12T15:50:45.665Z,5.23
2022-10-12T15:53:16.360Z,6.77
2022-10-12T15:55:44.439Z,6.00
2022-10-12T15:58:12.495Z,20.50
2022-10-12T16:00:40.682Z,15.40
2022-10-12T16:03:08.774Z,10.17
2022-10-12T16:05:37.843Z,5.07
2022-10-12T16:08:06.902Z,4.53
2022-10-12T16:10:37.954Z,5.93
2022-10-12T16:13:06.457Z,8.90
2022-10-12T16:15:35.537Z,12.63
2022-10-12T16:18:04.787Z,25.43
2022-10-12T16:20:34.125Z,32.20
2022-10-12T16:23:02.476Z,35.90
2022-10-12T16:25:30.636Z,38.90
2022-10-12T16:28:00.052Z,38.20
2022-10-12T16:30:28.311Z,32.30
2022-10-12T16:32:56.414Z,27.73
2022-10-12T16:35:24.563Z,23.70
2022-10-12T16:37:52.652Z,19.20
2022-10-12T16:40:21.006Z,16.03
2022-10-12T16:42:53.110Z,10.73
2022-10-12T16:45:22.624Z,9.03
2022-10-12T16:47:50.979Z,8.00
2022-10-12T16:50:19.258Z,6.83
2022-10-12T16:52:47.387Z,7.90
2022-10-12T16:55:15.566Z,8.27
2022-10-12T16:57:43.623Z,8.63
2022-10-12T17:00:20.631Z,7.00
2022-10-12T17:02:52.074Z,7.60
2022-10-12T17:05:23.407Z,7.30
2022-10-12T17:07:51.500Z,6.97
2022-10-12T17:10:19.557Z,7.83
2022-10-12T17:12:47.726Z,6.40
2022-10-12T17:15:16.069Z,6.10
2022-10-12T17:17:44.204Z,5.47
2022-10-12T17:20:13.851Z,4.80
2022-10-12T17:22:41.991Z,5.33
2022-10-12T17:25:10.517Z,7.07
2022-10-12T17:27:38.547Z,6.93
2022-10-12T17:30:08.060Z,6.23
2022-10-12T17:32:37.862Z,4.67
2022-10-12T17:35:06.906Z,7.57
2022-10-12T17:37:36.328Z,8.63
2022-10-12T17:40:04.895Z,7.27
2022-10-12T17:42:33.309Z,5.77
2022-10-12T17:45:01.426Z,4.73
2022-10-12T17:47:29.543Z,5.80
2022-10-12T17:49:57.648Z,6.20
2022-10-12T17:52:25.728Z,7.50
2022-10-12T17:54:55.198Z,9.20
2022-10-12T17:57:23.282Z,9.30
2022-10-12T17:59:51.387Z,7.97
2022-10-12T18:02:19.537Z,7.60
2022-10-12T18:04:47.619Z,8.33
2022-10-12T18:07:16.134Z,8.20
2022-10-12T18:09:44.440Z,9.80
2022-10-12T18:12:14.128Z,9.43
2022-10-12T18:14:42.482Z,9.73
2022-10-12T18:17:10.664Z,10.20
2022-10-12T18:19:38.743Z,10.37
2022-10-12T18:22:06.848Z,9.20
2022-10-12T18:24:34.979Z,11.13
2022-10-12T18:27:03.111Z,9.30
2022-10-12T18:29:32.579Z,8.93
2022-10-12T18:32:00.928Z,9.50
2022-10-12T18:34:31.952Z,9.47
2022-10-12T18:37:03.806Z,9.00
2022-10-12T18:39:31.982Z,9.37
2022-10-12T18:42:00.296Z,9.63
2022-10-12T18:44:28.426Z,8.90
2022-10-12T18:46:58.106Z,9.20
2022-10-12T18:49:26.199Z,8.67
2022-10-12T18:51:54.309Z,9.87
2022-10-12T18:54:22.450Z,9.90
2022-10-12T18:56:50.552Z,9.87
2022-10-12T18:59:19.382Z,9.10
2022-10-12T19:01:47.690Z,9.00
2022-10-12T19:04:17.258Z,8.07
2022-10-12T19:06:45.336Z,9.30
2022-10-12T19:09:14.257Z,8.17
2022-10-12T19:11:42.340Z,8.47
2022-10-12T19:14:14.112Z,8.50
2022-10-12T19:16:42.428Z,7.90
2022-10-12T19:19:16.935Z,8.07
2022-10-12T19:21:49.551Z,9.00
2022-10-12T19:24:18.121Z,9.30
2022-10-12T19:26:46.186Z,9.00
2022-10-12T19:29:14.378Z,9.73
2022-10-12T19:31:45.019Z,10.27
2022-10-12T19:34:14.764Z,9.80
2022-10-12T19:36:43.334Z,9.70
2022-10-12T19:39:17.688Z,8.17
2022-10-12T19:41:46.187Z,9.10
2022-10-12T19:44:14.465Z,8.77
2022-10-12T19:46:42.869Z,7.60
2022-10-12T19:49:13.553Z,14.43
2022-10-12T19:51:41.876Z,24.70
2022-10-12T19:54:13.353Z,13.50
2022-10-12T19:56:41.425Z,10.73
2022-10-12T19:59:09.525Z,11.13
2022-10-12T20:01:38.667Z,9.13
2022-10-12T20:04:09.732Z,8.10
2022-10-12T20:06:38.139Z,8.27
2022-10-12T20:09:06.472Z,8.63
2022-10-12T20:11:38.228Z,10.10
2022-10-12T20:14:06.769Z,8.70
2022-10-12T20:16:35.490Z,10.30
2022-10-12T20:19:03.879Z,9.13
2022-10-12T20:21:32.110Z,9.40
2022-10-12T20:24:00.264Z,9.60
2022-10-12T20:26:28.908Z,8.40
2022-10-12T20:28:58.495Z,9.27
2022-10-12T20:31:28.075Z,9.80
2022-10-12T20:33:57.830Z,8.20
2022-10-12T20:36:27.302Z,9.17
2022-10-12T20:38:55.709Z,8.17
2022-10-12T20:41:25.306Z,7.50
2022-10-12T20:43:56.137Z,8.60
2022-10-12T20:46:25.816Z,8.30
2022-10-12T20:48:58.675Z,15.00
2022-10-12T20:51:28.754Z,13.90
2022-10-12T20:53:59.053Z,14.43
2022-10-12T20:56:27.412Z,18.87
2022-10-12T20:58:56.491Z,19.33
2022-10-12T21:01:26.481Z,20.47
2022-10-12T21:03:54.607Z,17.93
2022-10-12T21:06:23.630Z,16.87
2022-10-12T21:08:52.135Z,14.50
2022-10-12T21:11:20.277Z,11.97
2022-10-12T21:13:48.407Z,11.17
2022-10-12T21:16:16.531Z,10.77
2022-10-12T21:18:45.980Z,10.70
2022-10-12T21:21:16.086Z,9.30
2022-10-12T21:23:44.513Z,9.40
2022-10-12T21:26:13.323Z,9.07
2022-10-12T21:28:41.588Z,9.30
2022-10-12T21:31:09.964Z,9.03
2022-10-12T21:33:38.135Z,6.90
2022-10-12T21:36:12.651Z,7.13
2022-10-12T21:38:40.958Z,7.40
2022-10-12T21:41:09.578Z,7.40
2022-10-12T21:43:38.020Z,7.00
2022-10-12T21:46:07.201Z,6.47
2022-10-12T21:48:35.286Z,6.27
2022-10-12T21:51:03.837Z,6.77
2022-10-12T21:53:34.814Z,6.97
2022-10-12T21:56:07.562Z,6.33
2022-10-12T21:58:35.804Z,6.60
2022-10-12T22:01:07.890Z,5.23
2022-10-12T22:03:36.225Z,4.97
2022-10-12T22:06:04.575Z,5.13
2022-10-12T22:08:34.400Z,5.30
2022-10-12T22:11:06.483Z,5.23
2022-10-12T22:13:34.664Z,5.20
2022-10-12T22:16:03.334Z,5.67
2022-10-12T22:18:31.889Z,5.10
2022-10-12T22:21:03.959Z,5.43
2022-10-12T22:23:33.593Z,5.60
2022-10-12T22:26:02.214Z,5.67
2022-10-12T22:28:30.383Z,5.73
2022-10-12T22:30:58.530Z,5.40
2022-10-12T22:33:26.639Z,4.70
2022-10-12T22:35:55.541Z,5.47
2022-10-12T22:38:23.760Z,5.83
2022-10-12T22:41:00.224Z,5.20
2022-10-12T22:43:28.991Z,5.30
2022-10-12T22:45:57.253Z,5.50
2022-10-12T22:48:25.569Z,4.57
2022-10-12T22:50:53.971Z,6.17
2022-10-12T22:53:23.031Z,4.33
2022-10-12T22:55:52.410Z,4.90
2022-10-12T22:58:21.824Z,5.83
2022-10-12T23:00:49.908Z,5.10
2022-10-12T23:03:18.055Z,4.80
2022-10-12T23:05:49.510Z,5.20
2022-10-12T23:08:17.988Z,5.07
2022-10-12T23:10:46.192Z,4.17
2022-10-12T23:13:14.618Z,4.43
2022-10-12T23:15:44.053Z,4.67
2022-10-12T23:18:12.225Z,4.77
2022-10-12T23:20:40.705Z,4.37
2022-10-12T23:23:08.863Z,4.50
2022-10-12T23:25:36.936Z,4.40
2022-10-12T23:28:05.438Z,4.13
2022-10-12T23:30:33.507Z,4.20
2022-10-12T23:33:02.924Z,4.23
2022-10-12T23:35:31.022Z,4.73
2022-10-12T23:37:59.066Z,4.13
2022-10-12T23:40:27.142Z,5.10
2022-10-12T23:42:55.250Z,4.33
2022-10-12T23:45:23.338Z,4.90
2022-10-12T23:47:51.472Z,4.40
2022-10-12T23:50:20.946Z,4.90
2022-10-12T23:52:49.041Z,4.70
2022-10-12T23:55:17.186Z,4.53
2022-10-12T23:57:47.548Z,3.73
